createdAt,value
2019-04-11T00:00:01.750Z,3.17
2019-04-11T00:02:31.006Z,3.70
2019-04-11T00:04:59.325Z,3.60
2019-04-11T00:07:28.009Z,3.37
2019-04-11T00:09:56.834Z,3.70
2019-04-11T00:12:26.225Z,4.07
2019-04-11T00:14:54.449Z,4.13
2019-04-11T00:17:22.654Z,3.63
2019-04-11T00:19:51.600Z,3.80
2019-04-11T00:22:19.790Z,3.60
2019-04-11T00:24:47.905Z,3.40
2019-04-11T00:27:19.039Z,3.57
2019-04-11T00:29:47.151Z,3.57
2019-04-11T00:32:15.193Z,3.30
2019-04-11T00:34:48.263Z,3.70
2019-04-11T00:37:34.961Z,2.70
2019-04-11T00:40:11.046Z,3.60
2019-04-11T00:42:47.115Z,3.17
2019-04-11T00:45:15.758Z,2.97
2019-04-11T00:47:44.896Z,3.40
2019-04-11T00:50:25.334Z,3.13
2019-04-11T00:52:53.766Z,3.00
2019-04-11T00:55:35.758Z,3.17
2019-04-11T00:58:25.667Z,2.97
2019-04-11T01:01:11.415Z,2.90
2019-04-11T01:04:07.595Z,2.90
2019-04-11T01:06:48.474Z,3.50
2019-04-11T01:09:34.774Z,2.67
2019-04-11T01:12:18.657Z,3.10
2019-04-11T01:17:54.411Z,3.30
2019-04-11T01:20:43.916Z,2.63
2019-04-11T01:23:22.738Z,3.03
2019-04-11T01:26:03.905Z,2.80
2019-04-11T01:29:09.258Z,3.00
2019-04-11T01:32:11.723Z,3.13
2019-04-11T01:34:40.988Z,3.00
2019-04-11T01:37:58.079Z,2.77
2019-04-11T01:40:36.026Z,2.67
2019-04-11T01:43:24.089Z,2.37
2019-04-11T01:46:18.113Z,2.77
2019-04-11T01:49:16.354Z,3.20
2019-04-11T01:52:03.542Z,2.70
2019-04-11T01:54:42.558Z,2.90
2019-04-11T01:57:18.053Z,2.73
2019-04-11T01:59:56.784Z,3.00
2019-04-11T02:02:50.796Z,2.67
2019-04-11T02:08:27.148Z,2.37
2019-04-11T02:14:28.027Z,2.87
2019-04-11T02:17:03.859Z,2.73
2019-04-11T02:19:44.673Z,2.83
2019-04-11T02:22:48.760Z,2.83
2019-04-11T02:25:36.643Z,2.43
2019-04-11T02:34:48.042Z,2.60
2019-04-11T02:37:24.198Z,2.73
2019-04-11T02:40:24.822Z,2.67
2019-04-11T02:43:07.120Z,2.83
2019-04-11T02:45:51.736Z,2.67
2019-04-11T02:48:47.355Z,2.50
2019-04-11T02:51:31.595Z,2.73
2019-04-11T02:54:07.481Z,2.47
2019-04-11T02:57:02.104Z,2.60
2019-04-11T02:59:40.966Z,3.40
2019-04-11T03:02:17.604Z,2.83
2019-04-11T03:05:07.081Z,2.70
2019-04-11T03:07:47.801Z,2.53
2019-04-11T03:10:29.101Z,3.03
2019-04-11T03:13:35.375Z,2.50
2019-04-11T03:16:28.818Z,2.83
2019-04-11T03:19:21.177Z,2.63
2019-04-11T03:21:46.526Z,2.77
2019-04-11T03:27:13.384Z,2.70
2019-04-11T03:29:57.981Z,2.70
2019-04-11T03:41:26.838Z,2.93
2019-04-11T03:44:12.074Z,2.77
2019-04-11T03:46:52.440Z,4.20
2019-04-11T03:49:31.716Z,2.43
2019-04-11T03:52:03.417Z,3.00
2019-04-11T03:54:40.515Z,3.00
2019-04-11T03:57:23.503Z,2.90
2019-04-11T04:00:03.535Z,3.10
2019-04-11T04:02:48.476Z,3.30
2019-04-11T04:05:36.227Z,3.00
2019-04-11T04:08:13.025Z,3.07
2019-04-11T04:11:00.891Z,2.67
2019-04-11T04:14:04.636Z,3.30
2019-04-11T04:16:40.382Z,2.63
2019-04-11T04:19:40.174Z,3.00
2019-04-11T04:22:37.613Z,2.77
2019-04-11T04:27:54.659Z,3.00
2019-04-11T04:30:29.801Z,3.23
2019-04-11T04:33:12.390Z,2.90
2019-04-11T04:35:45.329Z,3.20
2019-04-11T04:38:13.722Z,3.23
2019-04-11T04:41:00.783Z,3.17
2019-04-11T04:43:18.739Z,3.20
2019-04-11T04:46:05.115Z,3.20
2019-04-11T04:48:23.102Z,3.13
2019-04-11T04:50:52.359Z,3.37
2019-04-11T04:53:30.801Z,3.60
2019-04-11T04:56:02.660Z,3.17
2019-04-11T04:58:33.982Z,3.40
2019-04-11T05:01:06.906Z,3.40
2019-04-11T05:03:37.881Z,3.70
2019-04-11T05:06:07.737Z,3.43
2019-04-11T05:08:38.869Z,3.17
2019-04-11T05:11:10.208Z,3.17
2019-04-11T05:13:44.815Z,3.50
2019-04-11T05:16:20.178Z,3.40
2019-04-11T05:18:52.545Z,3.57
2019-04-11T05:21:35.897Z,3.80
2019-04-11T05:24:04.129Z,3.40
2019-04-11T05:26:36.468Z,3.70
2019-04-11T05:29:11.909Z,3.80
2019-04-11T05:31:49.122Z,3.80
2019-04-11T05:34:18.285Z,4.87
2019-04-11T05:36:47.173Z,4.50
2019-04-11T05:39:19.967Z,3.70
2019-04-11T05:41:56.577Z,4.63
2019-04-11T05:47:39.294Z,4.10
2019-04-11T05:50:14.110Z,5.07
2019-04-11T05:55:51.008Z,4.43
2019-04-11T05:58:53.514Z,5.13
2019-04-11T06:01:24.404Z,5.00
2019-04-11T06:03:57.353Z,4.47
2019-04-11T06:07:00.134Z,4.80
2019-04-11T06:09:42.128Z,4.87
2019-04-11T06:12:35.959Z,4.20
2019-04-11T06:15:33.264Z,4.57
2019-04-11T06:18:24.169Z,4.07
2019-04-11T06:20:56.383Z,4.50
2019-04-11T06:23:49.900Z,4.50
2019-04-11T06:26:49.204Z,4.17
2019-04-11T06:29:43.139Z,4.00
2019-04-11T06:33:02.552Z,4.80
2019-04-11T06:35:56.724Z,4.73
2019-04-11T06:38:52.524Z,4.40
2019-04-11T06:41:56.950Z,4.07
2019-04-11T06:45:11.325Z,3.60
2019-04-11T06:48:11.555Z,3.97
2019-04-11T06:51:15.618Z,3.97
2019-04-11T06:54:10.688Z,3.73
2019-04-11T06:56:52.082Z,3.90
2019-04-11T06:59:34.377Z,3.57
2019-04-11T07:02:24.105Z,3.57
2019-04-11T07:05:04.688Z,3.87
2019-04-11T07:07:53.548Z,4.00
2019-04-11T07:10:31.163Z,3.80
2019-04-11T07:13:26.664Z,3.77
2019-04-11T07:15:57.751Z,3.63
2019-04-11T07:18:57.048Z,3.50
2019-04-11T07:21:36.488Z,3.60
2019-04-11T07:24:32.331Z,3.83
2019-04-11T07:27:18.158Z,4.03
2019-04-11T07:29:57.045Z,4.13
2019-04-11T07:32:48.184Z,5.37
2019-04-11T07:35:59.815Z,5.27
2019-04-11T07:38:39.189Z,5.47
2019-04-11T07:41:30.228Z,4.73
2019-04-11T07:44:09.005Z,4.50
2019-04-11T07:47:13.649Z,5.40
2019-04-11T07:49:52.539Z,5.03
2019-04-11T07:53:35.164Z,4.63
2019-04-11T08:06:42.399Z,3.93
2019-04-11T08:09:31.261Z,3.90
2019-04-11T08:12:19.763Z,4.73
2019-04-11T08:15:11.587Z,4.40
2019-04-11T08:17:48.083Z,4.10
2019-04-11T08:20:37.465Z,4.47
2019-04-11T08:25:59.923Z,4.70
2019-04-11T08:28:39.339Z,5.30
2019-04-11T08:31:30.776Z,5.80
2019-04-11T08:34:13.204Z,3.83
2019-04-11T08:37:03.734Z,4.37
2019-04-11T08:39:47.085Z,5.50
2019-04-11T08:42:50.877Z,4.27
2019-04-11T08:45:30.299Z,3.30
2019-04-11T08:48:19.385Z,4.10
2019-04-11T08:50:59.020Z,3.83
2019-04-11T08:53:44.875Z,3.13
2019-04-11T08:56:25.091Z,3.33
2019-04-11T08:59:37.763Z,3.20
2019-04-11T09:02:16.343Z,3.17
2019-04-11T09:05:13.710Z,3.23
2019-04-11T09:07:45.789Z,3.20
2019-04-11T09:10:32.230Z,3.00
2019-04-11T09:13:37.596Z,3.80
2019-04-11T09:16:23.617Z,3.63
2019-04-11T09:19:20.930Z,3.03
2019-04-11T09:21:52.841Z,3.00
2019-04-11T09:24:40.973Z,3.33
2019-04-11T09:27:27.309Z,3.50
2019-04-11T09:30:20.980Z,2.97
2019-04-11T09:33:13.648Z,3.13
2019-04-11T09:36:03.828Z,3.23
2019-04-11T09:52:51.594Z,2.90
2019-04-11T09:55:59.040Z,2.33
2019-04-11T09:58:42.138Z,2.60
2019-04-11T10:01:24.917Z,2.60
2019-04-11T10:04:03.687Z,1.97
2019-04-11T10:10:46.522Z,2.37
2019-04-11T10:14:17.639Z,2.27
2019-04-11T10:17:35.943Z,2.60
2019-04-11T10:20:25.088Z,2.83
2019-04-11T10:23:15.075Z,2.43
2019-04-11T10:26:01.761Z,1.97
2019-04-11T10:28:54.189Z,2.60
2019-04-11T10:31:24.270Z,2.80
2019-04-11T10:34:19.634Z,2.50
2019-04-11T10:36:50.162Z,2.77
2019-04-11T10:39:37.443Z,2.40
2019-04-11T10:42:23.462Z,2.37
2019-04-11T10:45:29.539Z,2.60
2019-04-11T10:48:21.168Z,2.47
2019-04-11T10:51:17.310Z,2.60
2019-04-11T10:53:47.258Z,3.20
2019-04-11T10:56:41.179Z,2.90
2019-04-11T10:59:17.595Z,2.30
2019-04-11T11:02:04.677Z,4.20
2019-04-11T11:04:45.515Z,2.20
2019-04-11T11:07:20.292Z,2.50
2019-04-11T11:10:04.151Z,2.37
2019-04-11T11:13:12.183Z,2.10
2019-04-11T11:15:44.033Z,2.23
2019-04-11T11:19:01.959Z,2.00
2019-04-11T11:21:17.621Z,2.20
2019-04-11T11:24:20.404Z,1.93
2019-04-11T11:27:04.063Z,2.60
2019-04-11T11:29:53.929Z,2.10
2019-04-11T11:32:39.036Z,2.37
2019-04-11T11:35:28.379Z,2.47
2019-04-11T11:38:09.960Z,2.40
2019-04-11T11:40:52.099Z,2.50
2019-04-11T11:43:30.914Z,2.07
2019-04-11T11:46:19.354Z,1.90
2019-04-11T11:49:29.445Z,2.10
2019-04-11T11:52:11.356Z,2.20
2019-04-11T11:54:48.156Z,2.00
2019-04-11T11:57:45.064Z,2.00
2019-04-11T12:00:40.941Z,1.80
2019-04-11T12:03:31.103Z,2.30
2019-04-11T12:06:05.346Z,2.23
2019-04-11T12:08:52.598Z,2.23
2019-04-11T12:12:11.827Z,2.20
2019-04-11T12:15:32.919Z,1.80
2019-04-11T12:18:22.751Z,2.73
2019-04-11T12:21:03.672Z,2.53
2019-04-11T12:24:00.781Z,2.47
2019-04-11T12:26:33.287Z,2.10
2019-04-11T12:29:18.505Z,2.80
2019-04-11T12:31:53.397Z,2.13
2019-04-11T12:34:34.677Z,1.90
2019-04-11T12:37:17.645Z,1.77
2019-04-11T12:40:20.887Z,2.13
2019-04-11T12:42:56.038Z,1.80
2019-04-11T12:45:55.432Z,3.20
2019-04-11T12:48:39.047Z,4.33
2019-04-11T12:51:24.487Z,1.60
2019-04-11T12:53:58.848Z,1.70
2019-04-11T12:56:49.318Z,1.67
2019-04-11T12:59:35.561Z,2.23
2019-04-11T13:02:28.454Z,2.23
2019-04-11T13:05:19.852Z,1.87
2019-04-11T13:08:25.227Z,1.77
2019-04-11T13:10:56.541Z,1.50
2019-04-11T13:13:40.208Z,1.40
2019-04-11T13:16:24.840Z,1.30
2019-04-11T13:19:33.245Z,1.80
2019-04-11T13:22:14.470Z,1.90
2019-04-11T13:25:35.952Z,1.97
2019-04-11T13:28:13.950Z,1.40
2019-04-11T13:31:34.462Z,2.17
2019-04-11T13:34:28.152Z,1.87
2019-04-11T13:37:32.198Z,1.80
2019-04-11T13:43:54.847Z,1.70
2019-04-11T13:46:52.462Z,1.50
2019-04-11T13:49:53.467Z,1.50
2019-04-11T13:52:48.399Z,2.20
2019-04-11T13:55:42.107Z,1.70
2019-04-11T13:58:55.500Z,1.50
2019-04-11T14:01:33.626Z,1.70
2019-04-11T14:04:09.265Z,1.83
2019-04-11T14:06:44.412Z,1.93
2019-04-11T14:09:35.805Z,2.00
2019-04-11T14:15:06.016Z,1.80
2019-04-11T14:17:49.646Z,2.00
2019-04-11T14:20:43.019Z,1.70
2019-04-11T14:23:36.638Z,2.40
2019-04-11T14:26:28.426Z,1.80
2019-04-11T14:29:29.566Z,1.60
2019-04-11T14:35:32.396Z,1.53
2019-04-11T14:38:24.347Z,1.50
2019-04-11T14:41:19.545Z,1.40
2019-04-11T14:44:06.228Z,1.67
2019-04-11T14:46:58.212Z,1.23
2019-04-11T14:49:24.073Z,2.10
2019-04-11T14:52:20.371Z,1.83
2019-04-11T14:55:01.295Z,1.90
2019-04-11T14:58:01.999Z,1.73
2019-04-11T15:13:51.177Z,2.17
2019-04-11T15:16:40.889Z,2.10
2019-04-11T15:19:23.930Z,2.40
2019-04-11T15:22:35.691Z,2.33
2019-04-11T15:28:27.731Z,2.20
2019-04-11T15:31:20.431Z,2.10
2019-04-11T15:37:25.869Z,2.07
2019-04-11T15:40:02.693Z,2.30
2019-04-11T15:46:32.484Z,2.00
2019-04-11T15:49:32.067Z,2.10
2019-04-11T15:52:06.240Z,2.20
2019-04-11T15:54:52.612Z,2.83
2019-04-11T15:57:33.564Z,2.33
2019-04-11T16:00:27.071Z,2.50
2019-04-11T16:03:00.424Z,2.53
2019-04-11T16:05:47.875Z,2.53
2019-04-11T16:08:19.924Z,2.53
2019-04-11T16:11:15.855Z,1.93
2019-04-11T16:13:54.642Z,2.03
2019-04-11T16:16:28.929Z,2.00
2019-04-11T16:19:25.454Z,1.90
2019-04-11T16:22:18.835Z,1.73
2019-04-11T16:24:47.518Z,2.30
2019-04-11T16:27:34.291Z,2.60
2019-04-11T16:30:05.484Z,2.60
2019-04-11T16:32:35.331Z,2.00
2019-04-11T16:35:13.500Z,2.00
2019-04-11T16:37:42.220Z,2.30
2019-04-11T16:43:19.286Z,2.50
2019-04-11T16:46:05.102Z,2.40
2019-04-11T16:48:36.828Z,2.40
2019-04-11T16:51:06.017Z,2.47
2019-04-11T16:53:34.435Z,2.50
2019-04-11T16:56:02.944Z,2.30
2019-04-11T16:58:31.054Z,2.07
2019-04-11T17:04:08.738Z,2.33
2019-04-11T17:06:59.389Z,1.97
2019-04-11T17:09:36.082Z,3.20
2019-04-11T17:12:05.937Z,2.27
2019-04-11T17:14:35.269Z,2.60
2019-04-11T17:17:14.437Z,2.00
2019-04-11T17:19:36.275Z,2.20
2019-04-11T17:22:05.388Z,2.00
2019-04-11T17:24:33.729Z,2.10
2019-04-11T17:27:02.256Z,2.23
2019-04-11T17:29:31.107Z,2.20
2019-04-11T17:31:59.947Z,2.13
2019-04-11T17:34:32.085Z,2.40
2019-04-11T17:37:02.560Z,2.33
2019-04-11T17:39:28.921Z,2.40
2019-04-11T17:41:57.016Z,2.57
2019-04-11T17:44:25.092Z,2.63
2019-04-11T17:46:56.635Z,2.17
2019-04-11T17:49:24.178Z,2.10
2019-04-11T17:51:56.025Z,2.37
2019-04-11T17:54:24.735Z,2.40
2019-04-11T17:56:54.665Z,1.93
2019-04-11T17:59:21.936Z,2.30
2019-04-11T18:01:50.069Z,2.40
2019-04-11T18:04:59.067Z,2.23
2019-04-11T18:07:27.289Z,3.00
2019-04-11T18:09:56.034Z,2.40
2019-04-11T18:12:26.232Z,2.63
2019-04-11T18:14:54.609Z,3.00
2019-04-11T18:17:22.895Z,2.60
2019-04-11T18:19:51.014Z,3.50
2019-04-11T18:22:19.267Z,3.50
2019-04-11T18:24:50.215Z,2.90
2019-04-11T18:27:21.530Z,3.23
2019-04-11T18:29:47.362Z,2.70
2019-04-11T18:32:15.466Z,2.43
2019-04-11T18:34:43.548Z,3.53
2019-04-11T18:37:11.854Z,2.93
2019-04-11T18:39:39.938Z,2.63
2019-04-11T18:42:08.231Z,3.17
2019-04-11T18:44:36.475Z,3.00
2019-04-11T18:47:04.694Z,2.93
2019-04-11T18:49:32.929Z,3.10
2019-04-11T18:52:01.113Z,2.70
2019-04-11T18:54:29.205Z,2.93
2019-04-11T18:57:00.100Z,3.07
2019-04-11T18:59:28.261Z,3.43
2019-04-11T19:01:57.551Z,3.33
2019-04-11T19:04:32.308Z,2.90
2019-04-11T19:06:55.899Z,3.23
2019-04-11T19:09:24.011Z,3.17
2019-04-11T19:12:01.464Z,3.37
2019-04-11T19:14:29.544Z,3.03
2019-04-11T19:17:15.821Z,3.13
2019-04-11T19:19:48.645Z,3.20
2019-04-11T19:22:14.356Z,3.13
2019-04-11T19:24:42.983Z,2.80
2019-04-11T19:27:13.988Z,3.20
2019-04-11T19:29:42.747Z,3.30
2019-04-11T19:32:10.918Z,3.00
2019-04-11T19:35:06.371Z,3.00
2019-04-11T19:37:42.132Z,2.97
2019-04-11T19:40:10.289Z,3.30
2019-04-11T19:42:38.334Z,2.90
2019-04-11T19:48:15.673Z,3.57
2019-04-11T19:50:44.454Z,3.30
2019-04-11T19:53:12.645Z,4.03
2019-04-11T19:56:18.740Z,3.20
2019-04-11T19:58:50.020Z,3.50
2019-04-11T20:01:20.795Z,3.67
2019-04-11T20:03:56.667Z,2.83
2019-04-11T20:06:24.801Z,3.03
2019-04-11T20:08:57.590Z,3.40
2019-04-11T20:11:26.027Z,4.37
2019-04-11T20:13:56.648Z,3.40
2019-04-11T20:16:28.566Z,3.23
2019-04-11T20:18:57.698Z,3.13
2019-04-11T20:21:27.464Z,3.87
2019-04-11T20:23:56.046Z,3.47
2019-04-11T20:26:27.605Z,3.73
2019-04-11T20:28:58.341Z,3.73
2019-04-11T20:31:26.590Z,4.10
2019-04-11T20:33:54.715Z,3.70
2019-04-11T20:36:32.757Z,4.83
2019-04-11T20:38:53.019Z,3.80
2019-04-11T20:41:23.158Z,3.97
2019-04-11T20:43:56.046Z,3.83
2019-04-11T20:46:21.903Z,3.97
2019-04-11T20:48:51.011Z,4.60
2019-04-11T20:51:22.418Z,3.77
2019-04-11T20:53:54.183Z,4.17
2019-04-11T20:56:24.494Z,4.03
2019-04-11T20:58:53.525Z,3.83
2019-04-11T21:01:23.773Z,3.60
2019-04-11T21:03:53.867Z,3.67
2019-04-11T21:06:22.024Z,3.63
2019-04-11T21:08:50.292Z,3.80
2019-04-11T21:11:21.733Z,3.40
2019-04-11T21:13:50.209Z,3.47
2019-04-11T21:16:18.421Z,3.90
2019-04-11T21:18:49.940Z,3.63
2019-04-11T21:21:18.648Z,3.50
2019-04-11T21:23:47.426Z,3.70
2019-04-11T21:26:16.650Z,3.50
2019-04-11T21:28:48.033Z,3.73
2019-04-11T21:31:16.726Z,3.70
2019-04-11T21:33:45.243Z,3.80
2019-04-11T21:36:13.729Z,3.63
2019-04-11T21:38:42.704Z,3.50
2019-04-11T21:41:17.348Z,3.13
2019-04-11T21:43:46.407Z,3.33
2019-04-11T21:46:16.826Z,3.37
2019-04-11T21:48:45.309Z,3.57
2019-04-11T21:51:13.481Z,3.23
2019-04-11T21:53:44.684Z,3.70
2019-04-11T21:56:11.909Z,3.93
2019-04-11T21:58:40.118Z,4.00
2019-04-11T22:01:10.401Z,4.10
2019-04-11T22:03:39.626Z,3.47
2019-04-11T22:06:07.872Z,3.60
2019-04-11T22:08:36.291Z,4.03
2019-04-11T22:11:04.777Z,4.20
2019-04-11T22:13:32.911Z,4.10
2019-04-11T22:16:01.188Z,3.83
2019-04-11T22:18:29.505Z,3.43
2019-04-11T22:20:57.818Z,4.37
2019-04-11T22:23:26.090Z,3.70
2019-04-11T22:25:54.269Z,3.50
2019-04-11T22:28:24.895Z,3.73
2019-04-11T22:30:54.830Z,3.40
2019-04-11T22:33:39.758Z,3.20
2019-04-11T22:36:07.822Z,4.00
2019-04-11T22:38:36.124Z,3.73
2019-04-11T22:41:04.692Z,3.70
2019-04-11T22:43:32.934Z,3.73
2019-04-11T22:46:01.102Z,3.47
2019-04-11T22:48:29.275Z,4.20
2019-04-11T22:50:57.550Z,4.00
2019-04-11T22:53:25.660Z,4.30
2019-04-11T22:55:53.799Z,4.23
2019-04-11T22:58:22.416Z,3.93
2019-04-11T23:00:51.748Z,4.00
2019-04-11T23:03:23.967Z,3.43
2019-04-11T23:05:52.186Z,4.20
2019-04-11T23:08:20.391Z,3.90
2019-04-11T23:10:48.576Z,4.03
2019-04-11T23:13:16.710Z,3.90
2019-04-11T23:15:46.300Z,4.13
2019-04-11T23:18:14.754Z,4.33
2019-04-11T23:20:44.189Z,4.57
2019-04-11T23:23:13.387Z,3.97
2019-04-11T23:25:42.770Z,3.90
2019-04-11T23:28:10.997Z,4.30
2019-04-11T23:30:39.207Z,4.23
2019-04-11T23:33:07.959Z,4.73
2019-04-11T23:35:36.220Z,4.77
2019-04-11T23:38:04.515Z,4.07
2019-04-11T23:40:32.808Z,4.23
2019-04-11T23:43:00.954Z,4.43
2019-04-11T23:45:29.583Z,4.33
2019-04-11T23:47:57.646Z,4.53
2019-04-11T23:50:26.289Z,4.23
2019-04-11T23:52:57.021Z,4.50
2019-04-11T23:55:24.443Z,4.57
2019-04-11T23:57:52.659Z,4.77
